Brits Airport


Codes: FABS/
Name: Brits Airport
City: Brits
Country: South Africa
Elevation: 3756 ft.

Photos at Brits Airport


   Photos courtesy of SpottingLog. You can add your own sightings and photos by signing up for a free trial today.



No photos found.

Weather at Brits Airport


Time (UTC)DescriptionTempratureWindCloud coverageVisibilityPressureHumidity
15-Apr-2024 18:00Broken Clouds22°C4 mph, SE71%10000m1018hPa39%
15-Apr-2024 21:00Light Rain19°C7 mph, E42%10000m1020hPa49%
16-Apr-2024 00:00Scattered Clouds16°C11 mph, NE25%10000m1021hPa72%
16-Apr-2024 03:00Broken Clouds15°C11 mph, E67%10000m1022hPa80%
16-Apr-2024 06:00Scattered Clouds17°C13 mph, NE36%10000m1023hPa71%
16-Apr-2024 09:00Clear Sky23°C11 mph, NE5%10000m1021hPa45%
16-Apr-2024 12:00Scattered Clouds25°C9 mph, N39%10000m1017hPa35%
16-Apr-2024 15:00Overcast Clouds24°C9 mph, NE95%10000m1017hPa38%
16-Apr-2024 18:00Light Rain17°C4 mph, E83%10000m1020hPa76%
16-Apr-2024 21:00Light Rain17°C11 mph, E69%10000m1021hPa72%
17-Apr-2024 00:00Broken Clouds16°C11 mph, E66%10000m1021hPa73%
17-Apr-2024 03:00Broken Clouds14°C11 mph, E71%10000m1021hPa79%
17-Apr-2024 06:00Broken Clouds16°C13 mph, NE75%10000m1023hPa76%
17-Apr-2024 09:00Overcast Clouds21°C11 mph, NE98%10000m1021hPa45%
17-Apr-2024 12:00Overcast Clouds25°C7 mph, N92%10000m1018hPa32%
17-Apr-2024 15:00Light Rain23°C11 mph, W95%10000m1018hPa40%
17-Apr-2024 18:00Light Rain18°C4 mph, W97%10000m1021hPa63%
17-Apr-2024 21:00Light Rain16°C2 mph, N84%10000m1022hPa75%
18-Apr-2024 00:00Broken Clouds17°C4 mph, E57%10000m1021hPa68%
18-Apr-2024 03:00Clear Sky15°C2 mph, E1%10000m1021hPa76%
18-Apr-2024 06:00Clear Sky18°C4 mph, E0%10000m1023hPa63%
18-Apr-2024 09:00Clear Sky22°C2 mph, N0%10000m1023hPa48%
18-Apr-2024 12:00Clear Sky26°C7 mph, W0%10000m1019hPa37%
18-Apr-2024 15:00Few Clouds25°C4 mph, NW16%10000m1018hPa34%
18-Apr-2024 18:00Clear Sky21°C2 mph, NW8%10000m1019hPa46%
18-Apr-2024 21:00Clear Sky20°C4 mph, S0%10000m1021hPa49%
19-Apr-2024 00:00Clear Sky18°C4 mph, S4%10000m1020hPa52%
19-Apr-2024 03:00Clear Sky18°C4 mph, SE0%10000m1020hPa51%
19-Apr-2024 06:00Clear Sky21°C4 mph, E0%10000m1021hPa42%
19-Apr-2024 09:00Clear Sky26°C0 mph, E0%10000m1019hPa31%
19-Apr-2024 12:00Clear Sky28°C2 mph, NW0%10000m1016hPa25%
19-Apr-2024 15:00Scattered Clouds28°C4 mph, NW40%10000m1015hPa27%
19-Apr-2024 18:00Scattered Clouds23°C4 mph, W41%10000m1017hPa37%
19-Apr-2024 21:00Clear Sky21°C4 mph, S2%10000m1018hPa40%
20-Apr-2024 00:00Clear Sky20°C4 mph, S1%10000m1017hPa39%
20-Apr-2024 03:00Clear Sky18°C4 mph, SE0%10000m1017hPa40%
20-Apr-2024 06:00Clear Sky21°C2 mph, E0%10000m1018hPa36%
20-Apr-2024 09:00Clear Sky27°C2 mph, W1%10000m1017hPa27%
20-Apr-2024 12:00Clear Sky30°C4 mph, NW1%10000m1013hPa21%
20-Apr-2024 15:00Clear Sky30°C7 mph, NW0%10000m1013hPa23%